createdAt,value
2023-12-07T00:00:39.753Z,29.74
2023-12-07T00:02:41.197Z,29.73
2023-12-07T00:04:42.689Z,29.79
2023-12-07T00:06:44.263Z,29.55
2023-12-07T00:08:45.674Z,29.69
2023-12-07T00:10:47.184Z,29.64
2023-12-07T00:12:48.781Z,29.62
2023-12-07T00:14:50.935Z,29.43
2023-12-07T00:16:52.458Z,29.71
2023-12-07T00:18:54.388Z,29.65
2023-12-07T00:20:55.979Z,29.43
2023-12-07T00:22:57.635Z,29.70
2023-12-07T00:24:59.516Z,29.70
2023-12-07T00:27:01.023Z,29.58
2023-12-07T00:29:02.514Z,29.48
2023-12-07T00:31:04.303Z,29.62
2023-12-07T00:33:05.773Z,29.45
2023-12-07T00:35:09.034Z,29.64
2023-12-07T00:37:10.900Z,29.49
2023-12-07T00:39:13.320Z,29.52
2023-12-07T00:41:15.138Z,29.57
2023-12-07T00:43:17.510Z,29.30
2023-12-07T00:45:19.028Z,29.51
2023-12-07T00:47:20.629Z,29.31
2023-12-07T00:49:22.173Z,29.63
2023-12-07T00:51:23.669Z,29.57
2023-12-07T00:53:25.141Z,29.54
2023-12-07T00:55:26.624Z,29.59
2023-12-07T00:57:28.109Z,29.57
2023-12-07T00:59:34.840Z,29.46
2023-12-07T01:01:39.839Z,29.52
2023-12-07T01:03:41.939Z,29.65
2023-12-07T01:05:43.664Z,29.67
2023-12-07T01:07:45.240Z,29.64
2023-12-07T01:09:47.386Z,29.56
2023-12-07T01:11:49.202Z,29.61
2023-12-07T01:13:50.691Z,29.14
2023-12-07T01:15:52.283Z,29.32
2023-12-07T01:17:55.127Z,29.38
2023-12-07T01:19:56.717Z,29.32
2023-12-07T01:21:58.320Z,29.19
2023-12-07T01:24:10.569Z,29.40
2023-12-07T01:26:17.074Z,29.41
2023-12-07T01:28:18.563Z,29.26
2023-12-07T01:30:20.199Z,29.57
2023-12-07T01:32:21.994Z,29.28
2023-12-07T01:34:23.910Z,29.60
2023-12-07T01:36:25.802Z,29.46
2023-12-07T01:38:27.363Z,29.24
2023-12-07T01:40:28.924Z,29.31
2023-12-07T01:42:30.417Z,29.05
2023-12-07T01:44:32.162Z,29.44
2023-12-07T01:46:34.618Z,29.51
2023-12-07T01:48:36.410Z,29.54
2023-12-07T01:50:38.297Z,29.38
2023-12-07T01:52:43.495Z,29.61
2023-12-07T01:54:45.025Z,29.45
2023-12-07T01:56:46.860Z,29.54
2023-12-07T01:58:48.462Z,29.18
2023-12-07T02:00:50.242Z,29.48
2023-12-07T02:02:52.533Z,29.40
2023-12-07T02:04:54.192Z,29.33
2023-12-07T02:06:57.962Z,29.16
2023-12-07T02:08:59.667Z,29.33
2023-12-07T02:11:01.454Z,29.31
2023-12-07T02:13:04.454Z,29.35
2023-12-07T02:15:07.667Z,29.52
2023-12-07T02:17:25.386Z,29.42
2023-12-07T02:19:47.401Z,29.07
2023-12-07T02:21:51.094Z,29.38
2023-12-07T02:23:54.458Z,29.48
2023-12-07T02:26:00.413Z,29.45
2023-12-07T02:28:01.958Z,29.50
2023-12-07T02:30:03.747Z,29.26
2023-12-07T02:32:05.378Z,29.45
2023-12-07T02:34:07.214Z,29.32
2023-12-07T02:36:09.032Z,29.06
2023-12-07T02:38:10.939Z,29.43
2023-12-07T02:40:15.956Z,29.44
2023-12-07T02:42:17.788Z,29.26
2023-12-07T02:44:19.311Z,29.14
2023-12-07T02:46:20.810Z,29.14
2023-12-07T02:48:22.446Z,29.44
2023-12-07T02:50:23.984Z,29.20
2023-12-07T02:52:25.989Z,29.28
2023-12-07T02:54:27.904Z,29.34
2023-12-07T02:56:29.404Z,29.29
2023-12-07T02:58:31.056Z,29.43
2023-12-07T03:00:32.585Z,29.08
2023-12-07T03:02:37.627Z,29.13
2023-12-07T03:04:39.199Z,29.12
2023-12-07T03:06:40.711Z,29.09
2023-12-07T03:08:42.180Z,29.32
2023-12-07T03:10:43.691Z,29.06
2023-12-07T03:12:45.248Z,28.94
2023-12-07T03:14:47.047Z,29.37
2023-12-07T03:16:48.725Z,29.34
2023-12-07T03:18:50.281Z,29.34
2023-12-07T03:20:51.889Z,29.34
2023-12-07T03:22:53.490Z,29.05
2023-12-07T03:24:55.030Z,29.00
2023-12-07T03:26:56.474Z,29.33
2023-12-07T03:28:57.897Z,29.07
2023-12-07T03:30:59.455Z,29.17
2023-12-07T03:33:01.016Z,29.09
2023-12-07T03:35:02.624Z,29.41
2023-12-07T03:37:04.497Z,29.34
2023-12-07T03:39:06.251Z,29.10
2023-12-07T03:41:07.710Z,29.07
2023-12-07T03:43:09.218Z,29.27
2023-12-07T03:45:11.018Z,29.03
2023-12-07T03:47:12.481Z,29.15
2023-12-07T03:49:14.010Z,29.15
2023-12-07T03:51:17.478Z,29.02
2023-12-07T03:53:19.019Z,29.35
2023-12-07T03:55:20.546Z,29.20
2023-12-07T03:57:22.801Z,29.03
2023-12-07T03:59:24.338Z,29.38
2023-12-07T04:01:26.433Z,29.06
2023-12-07T04:03:27.878Z,29.09
2023-12-07T04:05:29.518Z,29.05
2023-12-07T04:07:31.311Z,29.22
2023-12-07T04:09:32.825Z,29.11
2023-12-07T04:11:34.374Z,29.00
2023-12-07T04:13:35.848Z,29.28
2023-12-07T04:15:37.309Z,29.22
2023-12-07T04:17:38.789Z,29.10
2023-12-07T04:19:40.298Z,29.22
2023-12-07T04:21:41.931Z,28.92
2023-12-07T04:23:43.571Z,29.15
2023-12-07T04:25:45.171Z,29.18
2023-12-07T04:27:46.720Z,29.34
2023-12-07T04:29:48.612Z,29.14
2023-12-07T04:31:51.120Z,29.28
2023-12-07T04:33:52.683Z,29.22
2023-12-07T04:35:54.159Z,28.98
2023-12-07T04:37:55.781Z,29.14
2023-12-07T04:39:57.239Z,29.35
2023-12-07T04:41:58.771Z,29.17
2023-12-07T04:44:00.345Z,29.31
2023-12-07T04:46:01.792Z,29.12
2023-12-07T04:48:05.041Z,29.25
2023-12-07T04:50:06.921Z,29.25
2023-12-07T04:52:08.494Z,29.38
2023-12-07T04:54:16.613Z,29.23
2023-12-07T04:56:21.439Z,29.11
2023-12-07T04:58:22.964Z,28.90
2023-12-07T05:00:24.408Z,29.00
2023-12-07T05:02:26.230Z,28.88
2023-12-07T05:04:28.019Z,29.21
2023-12-07T05:06:29.653Z,29.12
2023-12-07T05:08:31.055Z,29.12
2023-12-07T05:10:32.515Z,29.09
2023-12-07T05:12:34.062Z,29.40
2023-12-07T05:14:36.245Z,29.28
2023-12-07T05:16:37.938Z,29.17
2023-12-07T05:18:39.491Z,28.81
2023-12-07T05:20:41.277Z,29.22
2023-12-07T05:22:42.840Z,29.07
2023-12-07T05:24:44.485Z,29.16
2023-12-07T05:26:52.980Z,29.15
2023-12-07T05:28:54.469Z,28.85
2023-12-07T05:30:58.253Z,28.82
2023-12-07T05:33:00.033Z,28.93
2023-12-07T05:35:01.713Z,29.10
2023-12-07T05:37:03.276Z,29.27
2023-12-07T05:39:08.218Z,28.80
2023-12-07T05:41:10.564Z,28.96
2023-12-07T05:43:12.015Z,29.14
2023-12-07T05:45:13.549Z,28.79
2023-12-07T05:47:15.179Z,28.98
2023-12-07T05:49:16.769Z,29.12
2023-12-07T05:51:21.769Z,29.00
2023-12-07T05:53:23.313Z,29.08
2023-12-07T05:55:25.162Z,29.08
2023-12-07T05:57:26.767Z,29.25
2023-12-07T05:59:28.283Z,28.84
2023-12-07T06:01:29.912Z,29.24
2023-12-07T06:03:31.574Z,28.97
2023-12-07T06:05:33.180Z,29.14
2023-12-07T06:07:35.233Z,29.12
2023-12-07T06:09:36.729Z,28.75
2023-12-07T06:11:38.336Z,29.05
2023-12-07T06:13:39.896Z,29.09
2023-12-07T06:15:41.645Z,29.11
2023-12-07T06:17:43.432Z,29.10
2023-12-07T06:19:45.372Z,28.84
2023-12-07T06:21:47.157Z,28.85
2023-12-07T06:23:48.836Z,29.16
2023-12-07T06:25:50.530Z,29.05
2023-12-07T06:27:52.049Z,29.03
2023-12-07T06:29:53.626Z,29.08
2023-12-07T06:31:55.046Z,28.96
2023-12-07T06:33:56.667Z,28.80
2023-12-07T06:35:58.258Z,28.90
2023-12-07T06:37:59.845Z,28.79
2023-12-07T06:40:01.440Z,28.75
2023-12-07T06:42:03.062Z,29.03
2023-12-07T06:44:04.520Z,29.02
2023-12-07T06:46:06.430Z,28.92
2023-12-07T06:48:08.035Z,29.03
2023-12-07T06:50:11.305Z,29.06
2023-12-07T06:52:13.142Z,28.96
2023-12-07T06:54:14.974Z,29.01
2023-12-07T06:56:16.766Z,28.99
2023-12-07T06:58:18.747Z,29.00
2023-12-07T07:00:21.209Z,28.60
2023-12-07T07:02:24.233Z,28.79
2023-12-07T07:04:26.046Z,29.03
2023-12-07T07:06:27.574Z,28.94
2023-12-07T07:08:29.846Z,28.87
2023-12-07T07:10:31.423Z,28.90
2023-12-07T07:12:32.997Z,28.84
2023-12-07T07:14:35.327Z,28.97
2023-12-07T07:16:36.806Z,28.97
2023-12-07T07:18:39.118Z,28.92
2023-12-07T07:20:40.767Z,29.12
2023-12-07T07:22:42.397Z,29.01
2023-12-07T07:24:44.278Z,28.63
2023-12-07T07:26:45.732Z,28.76
2023-12-07T07:28:47.280Z,28.78
2023-12-07T07:30:49.131Z,28.91
2023-12-07T07:32:51.039Z,28.98
2023-12-07T07:34:53.252Z,28.58
2023-12-07T07:36:54.801Z,28.80
2023-12-07T07:38:56.345Z,28.67
2023-12-07T07:40:57.953Z,29.00
2023-12-07T07:42:59.668Z,29.01
2023-12-07T07:45:01.170Z,28.99
2023-12-07T07:47:02.699Z,28.92
2023-12-07T07:49:07.562Z,28.96
2023-12-07T07:51:09.316Z,29.02
2023-12-07T07:53:10.817Z,28.91
2023-12-07T07:55:13.047Z,28.75
2023-12-07T07:57:14.536Z,28.75
2023-12-07T07:59:16.392Z,28.76
2023-12-07T08:01:18.001Z,28.88
2023-12-07T08:03:19.566Z,28.70
2023-12-07T08:05:21.082Z,28.67
2023-12-07T08:07:22.902Z,28.95
2023-12-07T08:09:24.572Z,28.82
2023-12-07T08:11:26.314Z,28.98
2023-12-07T08:13:28.676Z,28.65
2023-12-07T08:15:30.390Z,28.87
2023-12-07T08:17:31.987Z,28.73
2023-12-07T08:19:33.796Z,28.61
2023-12-07T08:21:35.421Z,28.62
2023-12-07T08:23:36.983Z,28.92
2023-12-07T08:25:41.436Z,28.51
2023-12-07T08:27:45.234Z,28.94
2023-12-07T08:29:47.520Z,28.87
2023-12-07T08:31:49.216Z,28.57
2023-12-07T08:33:54.208Z,28.90
2023-12-07T08:35:56.550Z,28.81
2023-12-07T08:37:58.161Z,28.86
2023-12-07T08:39:59.813Z,28.66
2023-12-07T08:42:02.091Z,28.53
2023-12-07T08:44:03.831Z,28.76
2023-12-07T08:46:08.504Z,28.89
2023-12-07T08:48:10.222Z,28.74
2023-12-07T08:50:11.807Z,28.66
2023-12-07T08:52:22.826Z,28.86
2023-12-07T08:54:33.550Z,28.67
2023-12-07T08:56:35.119Z,28.38
2023-12-07T08:58:36.678Z,28.74
2023-12-07T09:00:39.506Z,28.54
2023-12-07T09:02:46.672Z,28.79
2023-12-07T09:04:51.752Z,28.58
2023-12-07T09:06:53.439Z,28.62
2023-12-07T09:08:56.207Z,28.35
2023-12-07T09:10:57.983Z,28.74
2023-12-07T09:12:59.490Z,28.74
2023-12-07T09:15:01.001Z,28.44
2023-12-07T09:17:02.491Z,28.35
2023-12-07T09:19:04.126Z,28.42
2023-12-07T09:21:05.741Z,28.42
2023-12-07T09:23:07.288Z,28.37
2023-12-07T09:25:09.393Z,28.73
2023-12-07T09:27:12.817Z,28.75
2023-12-07T09:29:14.449Z,28.44
2023-12-07T09:31:17.849Z,28.83
2023-12-07T09:33:20.649Z,28.65
2023-12-07T09:35:23.296Z,28.82
2023-12-07T09:37:25.199Z,28.58
2023-12-07T09:39:28.775Z,28.74
2023-12-07T09:41:31.495Z,28.63
2023-12-07T09:43:33.394Z,28.53
2023-12-07T09:45:35.379Z,28.71
2023-12-07T09:47:38.575Z,28.44
2023-12-07T09:49:41.233Z,28.66
2023-12-07T09:51:43.594Z,28.70
2023-12-07T09:53:46.155Z,28.63
2023-12-07T09:55:47.918Z,28.64
2023-12-07T09:57:50.328Z,28.75
2023-12-07T09:59:51.948Z,28.37
2023-12-07T10:01:53.556Z,28.38
2023-12-07T10:04:13.948Z,28.67
2023-12-07T10:06:16.047Z,28.69
2023-12-07T10:08:26.343Z,28.38
2023-12-07T10:10:28.034Z,27.98
2023-12-07T10:12:29.673Z,28.25
2023-12-07T10:14:31.392Z,28.08
2023-12-07T10:16:36.303Z,28.11
2023-12-07T10:18:40.005Z,27.89
2023-12-07T10:20:46.488Z,27.75
2023-12-07T10:22:48.338Z,27.97
2023-12-07T10:24:50.079Z,27.83
2023-12-07T10:26:59.993Z,27.68
2023-12-07T10:29:09.070Z,27.70
2023-12-07T10:31:12.190Z,27.40
2023-12-07T10:33:14.681Z,27.41
2023-12-07T10:35:17.677Z,27.55
2023-12-07T10:37:19.170Z,27.46
2023-12-07T10:39:25.115Z,27.33
2023-12-07T10:41:30.493Z,27.55
2023-12-07T10:43:34.072Z,27.54
2023-12-07T10:45:36.130Z,27.38
2023-12-07T10:47:40.530Z,27.35
2023-12-07T10:49:47.775Z,27.30
2023-12-07T10:52:01.043Z,27.12
2023-12-07T10:54:05.715Z,27.39
2023-12-07T10:56:11.239Z,27.98
2023-12-07T10:58:14.045Z,27.61
2023-12-07T11:00:15.760Z,27.05
2023-12-07T11:02:19.942Z,27.18
2023-12-07T11:04:23.365Z,27.12
2023-12-07T11:06:25.174Z,26.78
2023-12-07T11:08:33.267Z,27.04
2023-12-07T11:10:44.212Z,26.84
2023-12-07T11:12:49.462Z,26.84
2023-12-07T11:14:51.091Z,26.92
2023-12-07T11:16:53.529Z,27.04
2023-12-07T11:18:55.241Z,26.67
2023-12-07T11:20:57.624Z,26.68
2023-12-07T11:23:00.297Z,26.99
2023-12-07T11:25:04.392Z,26.88
2023-12-07T11:27:06.864Z,26.89
2023-12-07T11:29:11.278Z,27.06
2023-12-07T11:31:14.756Z,26.84
2023-12-07T11:33:16.766Z,26.86
2023-12-07T11:37:45.050Z,26.75
2023-12-07T11:39:46.857Z,26.70
2023-12-07T11:58:51.893Z,26.83
2023-12-07T12:00:54.840Z,26.94
2023-12-07T12:02:57.272Z,27.06
2023-12-07T12:04:59.450Z,26.89
2023-12-07T12:07:01.070Z,27.03
2023-12-07T12:09:02.617Z,26.64
2023-12-07T12:11:04.345Z,26.70
2023-12-07T12:13:06.038Z,26.67
2023-12-07T12:15:07.760Z,26.76
2023-12-07T12:30:53.622Z,26.74
2023-12-07T12:32:57.127Z,26.51
2023-12-07T12:34:59.655Z,27.01
2023-12-07T12:37:01.755Z,27.18
2023-12-07T12:39:06.308Z,27.42
2023-12-07T12:41:08.373Z,27.61
2023-12-07T12:43:11.838Z,27.06
2023-12-07T12:45:14.894Z,27.30
2023-12-07T12:47:16.505Z,26.62
2023-12-07T12:49:18.391Z,26.90
2023-12-07T12:51:20.303Z,26.53
2023-12-07T12:53:21.826Z,26.41
2023-12-07T12:55:23.401Z,26.93
2023-12-07T12:57:25.932Z,26.57
2023-12-07T12:59:28.058Z,26.94
2023-12-07T13:01:29.742Z,26.93
2023-12-07T13:03:32.790Z,27.08
2023-12-07T13:05:35.629Z,26.72
2023-12-07T13:07:38.167Z,26.68
2023-12-07T13:09:44.674Z,27.00
2023-12-07T13:11:46.205Z,26.67
2023-12-07T13:13:48.831Z,26.84
2023-12-07T13:15:50.598Z,26.82
2023-12-07T13:17:52.423Z,26.83
2023-12-07T13:19:55.519Z,26.44
2023-12-07T13:21:57.461Z,27.08
2023-12-07T13:24:01.640Z,26.38
2023-12-07T13:26:05.543Z,27.57
2023-12-07T13:28:07.530Z,28.23
2023-12-07T13:30:10.309Z,28.23
2023-12-07T13:32:12.935Z,28.16
2023-12-07T13:34:20.961Z,27.78
2023-12-07T13:36:27.588Z,28.28
2023-12-07T13:38:31.157Z,28.09
2023-12-07T13:40:32.919Z,28.29
2023-12-07T13:42:34.496Z,29.66
2023-12-07T13:44:36.680Z,29.39
2023-12-07T13:50:51.560Z,29.14
2023-12-07T13:52:53.341Z,29.47
2023-12-07T13:54:54.806Z,29.05
2023-12-07T13:56:56.422Z,28.60
2023-12-07T13:58:58.025Z,29.25
2023-12-07T14:00:59.667Z,28.95
2023-12-07T14:03:01.301Z,29.46
2023-12-07T14:05:02.982Z,30.34
2023-12-07T14:07:12.357Z,29.96
2023-12-07T14:09:14.001Z,28.78
2023-12-07T14:11:15.639Z,28.35
2023-12-07T14:13:19.194Z,28.25
2023-12-07T14:15:29.008Z,27.57
2023-12-07T14:17:47.350Z,27.74
2023-12-07T14:20:00.097Z,28.62
2023-12-07T14:22:09.471Z,29.82
2023-12-07T14:24:11.260Z,29.72
2023-12-07T14:26:12.981Z,29.26
2023-12-07T14:28:14.437Z,29.26
2023-12-07T14:30:17.968Z,28.24
2023-12-07T14:32:19.968Z,27.44
2023-12-07T14:34:31.054Z,27.30
2023-12-07T14:36:36.306Z,27.20
2023-12-07T14:38:38.398Z,27.60
2023-12-07T14:40:40.004Z,28.71
2023-12-07T14:42:41.709Z,28.78
2023-12-07T14:44:43.241Z,28.96
2023-12-07T14:46:46.003Z,28.52
2023-12-07T14:48:47.692Z,29.38
2023-12-07T14:50:49.409Z,28.15
2023-12-07T14:52:51.109Z,29.21
2023-12-07T14:54:53.895Z,28.82
2023-12-07T14:56:55.684Z,28.69
2023-12-07T14:58:59.225Z,28.14
2023-12-07T15:01:01.042Z,27.66
2023-12-07T15:03:02.587Z,28.60
2023-12-07T15:05:05.677Z,27.94
2023-12-07T15:07:07.716Z,27.86
2023-12-07T15:09:09.463Z,28.97
2023-12-07T15:11:11.871Z,28.80
2023-12-07T15:13:13.439Z,28.40
2023-12-07T15:15:15.122Z,28.51
2023-12-07T15:17:17.074Z,28.67
2023-12-07T15:19:18.971Z,29.58
2023-12-07T15:21:20.952Z,29.29
2023-12-07T15:23:22.558Z,29.37
2023-12-07T15:25:24.183Z,29.30
2023-12-07T15:27:25.932Z,29.64
2023-12-07T15:29:27.587Z,28.57
2023-12-07T15:31:29.311Z,29.74
2023-12-07T15:33:31.679Z,29.44
2023-12-07T15:35:33.807Z,28.78
2023-12-07T15:37:35.502Z,28.67
2023-12-07T15:39:37.099Z,28.52
2023-12-07T15:41:39.106Z,28.08
2023-12-07T15:43:40.732Z,27.57
2023-12-07T15:45:42.332Z,28.71
2023-12-07T15:47:44.346Z,27.86
2023-12-07T15:49:46.136Z,28.30
2023-12-07T15:51:48.922Z,28.54
2023-12-07T15:53:50.562Z,28.58
2023-12-07T15:55:52.117Z,27.88
2023-12-07T15:57:55.622Z,28.00
2023-12-07T15:59:57.923Z,28.02
2023-12-07T16:01:59.744Z,27.49
2023-12-07T16:04:02.000Z,27.83
2023-12-07T16:06:05.178Z,27.36
2023-12-07T16:08:06.936Z,27.61
2023-12-07T16:10:09.732Z,27.50
2023-12-07T16:12:12.401Z,27.14
2023-12-07T16:14:20.964Z,27.17
2023-12-07T16:16:27.980Z,26.92
2023-12-07T16:18:29.754Z,27.01
2023-12-07T16:20:31.449Z,26.99
2023-12-07T16:22:33.140Z,26.89
2023-12-07T16:24:34.872Z,26.95
2023-12-07T16:26:39.401Z,26.81
2023-12-07T16:28:40.991Z,27.17
2023-12-07T16:30:48.535Z,27.21
2023-12-07T16:32:51.038Z,26.91
2023-12-07T16:34:52.768Z,27.18
2023-12-07T16:36:54.467Z,27.81
2023-12-07T16:38:56.060Z,27.52
2023-12-07T16:40:57.676Z,27.19
2023-12-07T16:42:59.433Z,27.34
2023-12-07T16:45:00.987Z,27.00
2023-12-07T16:47:03.009Z,27.31
2023-12-07T16:49:04.708Z,27.23
2023-12-07T16:51:07.089Z,27.30
2023-12-07T16:53:08.757Z,27.20
2023-12-07T16:55:10.488Z,26.95
2023-12-07T16:57:12.241Z,27.46
2023-12-07T16:59:13.892Z,27.21
2023-12-07T17:01:16.018Z,27.08
2023-12-07T17:03:19.965Z,27.53
2023-12-07T17:05:22.346Z,26.98
2023-12-07T17:07:24.343Z,26.98
2023-12-07T17:09:27.272Z,27.64
2023-12-07T17:11:29.061Z,27.68
2023-12-07T17:13:30.647Z,28.04
2023-12-07T17:15:32.332Z,28.23
2023-12-07T17:17:33.989Z,27.18
2023-12-07T17:19:42.128Z,27.50
2023-12-07T17:21:48.734Z,28.36
2023-12-07T17:23:50.471Z,28.42
2023-12-07T17:25:52.255Z,27.98
2023-12-07T17:27:56.701Z,28.40
2023-12-07T17:29:59.665Z,28.70
2023-12-07T17:32:01.487Z,28.62
2023-12-07T17:36:09.821Z,28.40
2023-12-07T17:38:11.285Z,29.89
2023-12-07T17:40:12.902Z,28.31
2023-12-07T17:42:14.575Z,28.41
2023-12-07T17:46:23.068Z,28.28
2023-12-07T17:48:24.856Z,28.22
2023-12-07T17:50:26.576Z,27.14
2023-12-07T17:52:28.213Z,27.19
2023-12-07T18:00:48.949Z,27.34
2023-12-07T18:02:50.777Z,27.69
2023-12-07T18:04:52.706Z,28.88
2023-12-07T18:11:03.201Z,28.11
2023-12-07T18:13:04.850Z,28.66
2023-12-07T18:15:09.001Z,28.49
2023-12-07T18:17:10.722Z,29.01
2023-12-07T18:23:25.849Z,27.75
2023-12-07T18:25:27.482Z,27.67
2023-12-07T18:27:29.259Z,27.34
2023-12-07T18:29:31.135Z,27.38
2023-12-07T18:33:39.553Z,29.34
2023-12-07T18:35:41.231Z,28.36
2023-12-07T18:37:42.795Z,27.91
2023-12-07T18:39:44.413Z,28.08
2023-12-07T18:41:46.013Z,28.00
2023-12-07T18:45:54.826Z,28.21
2023-12-07T18:47:56.473Z,29.20
2023-12-07T18:49:58.370Z,28.62
2023-12-07T18:52:00.831Z,28.78
2023-12-07T18:58:39.872Z,29.73
2023-12-07T19:00:42.686Z,29.95
2023-12-07T19:02:44.872Z,29.23
2023-12-07T19:04:46.620Z,29.34
2023-12-07T19:06:48.188Z,30.37
2023-12-07T19:08:49.791Z,30.24
2023-12-07T19:10:51.598Z,29.77
2023-12-07T19:12:53.148Z,29.49
2023-12-07T19:14:54.730Z,29.92
2023-12-07T19:16:56.378Z,29.53
2023-12-07T19:18:58.030Z,30.11
2023-12-07T19:21:00.169Z,29.99
2023-12-07T19:23:01.814Z,29.58
2023-12-07T19:25:03.550Z,28.95
2023-12-07T19:27:05.166Z,29.04
2023-12-07T19:29:06.792Z,28.67
2023-12-07T19:31:08.739Z,28.71
2023-12-07T19:33:10.477Z,28.44
2023-12-07T19:35:12.095Z,28.47
2023-12-07T19:37:13.783Z,28.84
2023-12-07T19:39:18.530Z,28.82
2023-12-07T19:41:20.091Z,28.56
2023-12-07T19:43:21.658Z,28.90
2023-12-07T19:45:23.162Z,27.97
2023-12-07T19:47:24.947Z,28.29
2023-12-07T19:49:26.838Z,29.45
2023-12-07T19:51:28.504Z,28.98
2023-12-07T19:53:30.088Z,28.96
2023-12-07T19:55:31.887Z,28.81
2023-12-07T19:57:33.988Z,28.65
2023-12-07T19:59:35.661Z,29.30
2023-12-07T20:01:37.280Z,28.83
2023-12-07T20:03:39.104Z,29.26
2023-12-07T20:05:40.623Z,30.00
2023-12-07T20:07:42.295Z,29.20
2023-12-07T20:09:43.909Z,30.12
2023-12-07T20:11:45.770Z,29.67
2023-12-07T20:13:47.833Z,29.98
2023-12-07T20:15:49.325Z,29.75
2023-12-07T20:17:51.103Z,28.95
2023-12-07T20:19:52.837Z,28.83
2023-12-07T20:21:54.514Z,29.19
2023-12-07T20:23:56.130Z,29.35
2023-12-07T20:25:57.822Z,29.42
2023-12-07T20:27:59.384Z,29.28
2023-12-07T20:30:01.241Z,29.14
2023-12-07T20:32:02.973Z,29.27
2023-12-07T20:34:04.867Z,29.13
2023-12-07T20:36:06.676Z,29.21
2023-12-07T20:38:09.142Z,29.17
2023-12-07T20:40:11.100Z,29.24
2023-12-07T20:42:12.849Z,29.18
2023-12-07T20:44:14.444Z,29.28
2023-12-07T20:46:16.113Z,29.47
2023-12-07T20:48:17.751Z,29.40
2023-12-07T20:50:20.543Z,29.09
2023-12-07T20:52:22.162Z,29.20
2023-12-07T20:54:23.826Z,29.40
2023-12-07T20:56:29.640Z,29.29
2023-12-07T20:58:36.541Z,28.92
2023-12-07T21:00:38.246Z,29.12
2023-12-07T21:02:39.830Z,29.34
2023-12-07T21:04:41.486Z,29.58
2023-12-07T21:06:43.183Z,29.36
2023-12-07T21:08:44.828Z,29.34
2023-12-07T21:10:46.426Z,29.38
2023-12-07T21:12:51.139Z,29.54
2023-12-07T21:14:52.870Z,29.37
2023-12-07T21:16:54.547Z,29.46
2023-12-07T21:18:56.266Z,29.68
2023-12-07T21:20:57.963Z,29.35
2023-12-07T21:22:59.685Z,29.69
2023-12-07T21:25:01.318Z,29.61
2023-12-07T21:27:02.963Z,29.55
2023-12-07T21:29:04.657Z,29.77
2023-12-07T21:31:06.462Z,29.66
2023-12-07T21:33:08.405Z,29.50
2023-12-07T21:35:10.718Z,29.42
2023-12-07T21:37:12.311Z,29.52
2023-12-07T21:39:14.054Z,29.43
2023-12-07T21:41:15.522Z,29.58
2023-12-07T21:43:17.104Z,29.59
2023-12-07T21:45:18.813Z,29.58
2023-12-07T21:47:20.484Z,29.46
2023-12-07T21:49:22.223Z,29.92
2023-12-07T21:51:23.949Z,29.92
2023-12-07T21:53:25.629Z,29.96
2023-12-07T21:55:27.268Z,29.47
2023-12-07T21:57:29.188Z,29.71
2023-12-07T21:59:30.991Z,29.79
2023-12-07T22:01:32.715Z,29.84
2023-12-07T22:03:34.248Z,29.67
2023-12-07T22:05:36.086Z,30.06
2023-12-07T22:07:37.595Z,29.78
2023-12-07T22:09:39.523Z,29.84
2023-12-07T22:11:44.527Z,30.10
2023-12-07T22:13:46.146Z,30.22
2023-12-07T22:15:47.731Z,29.88
2023-12-07T22:17:49.400Z,30.08
2023-12-07T22:19:51.500Z,29.93
2023-12-07T22:21:53.111Z,30.19
2023-12-07T22:23:54.755Z,29.91
2023-12-07T22:25:56.713Z,30.00
2023-12-07T22:27:59.685Z,29.82
2023-12-07T22:30:01.695Z,30.12
2023-12-07T22:32:03.480Z,30.02
2023-12-07T22:34:05.244Z,30.20
2023-12-07T22:36:07.294Z,30.07
2023-12-07T22:38:09.110Z,30.04
2023-12-07T22:40:10.969Z,30.17
2023-12-07T22:44:18.890Z,30.27
2023-12-07T22:46:20.399Z,30.15
2023-12-07T22:48:22.108Z,30.01
2023-12-07T22:50:23.819Z,30.07
2023-12-07T22:52:25.369Z,30.24
2023-12-07T22:54:27.662Z,30.16
2023-12-07T22:56:29.731Z,30.14
2023-12-07T22:58:31.289Z,30.15
2023-12-07T23:00:33.016Z,30.07
2023-12-07T23:02:34.727Z,30.05
2023-12-07T23:04:36.424Z,30.24
2023-12-07T23:06:38.228Z,30.53
2023-12-07T23:08:39.770Z,30.17
2023-12-07T23:10:41.351Z,30.39
2023-12-07T23:12:42.992Z,30.09
2023-12-07T23:14:44.620Z,30.21
2023-12-07T23:16:46.168Z,30.26
2023-12-07T23:18:47.871Z,30.59
2023-12-07T23:20:49.576Z,30.27
2023-12-07T23:22:51.736Z,30.32
2023-12-07T23:24:53.336Z,30.44
2023-12-07T23:26:55.693Z,30.00
2023-12-07T23:28:57.402Z,30.43
2023-12-07T23:30:58.959Z,30.52
2023-12-07T23:33:00.661Z,30.28
2023-12-07T23:35:02.334Z,30.29
2023-12-07T23:37:04.139Z,30.40
2023-12-07T23:39:06.016Z,30.33
2023-12-07T23:41:07.673Z,30.51
2023-12-07T23:43:09.332Z,30.48
2023-12-07T23:45:11.337Z,30.31
2023-12-07T23:47:13.000Z,30.57
2023-12-07T23:49:14.611Z,30.33
2023-12-07T23:51:16.538Z,30.27
2023-12-07T23:53:18.161Z,30.62
2023-12-07T23:55:19.728Z,30.68
2023-12-07T23:57:21.374Z,30.58
2023-12-07T23:59:22.914Z,30.74
